Dongen, Netherlands
Current Conditions -  °F | °C
As of 10:25 AM on Wednesday 28 Jan 2015 (Local Time) from EHGR Reporting Station
Drizzle Drizzle  
Wind Chill: 35°   Ceiling: 800
Heat Index: 43°   Visibility: 2mi
Dew Point: 41°   Wind: 16mph
Humidity: 93%   Direction: 210°SSW
Pressure: 29.77"   Gusts: NA
Location:  51.63°N, 4.94°E
Report Text: EHGR 280925Z AUTO 21014KT 3200 R28/3000 -DZ SCT006 BKN008 OVC009 06/05 Q1008 REDZ YLO 21015G25KT 9999 SCT025 BKN030 TEMPO 4500 -RADZ SCT008 BKN010
Loading
Personal Weather Stations






























Interactive Weather Map New forecast layout! Learn more

10-Day Weather Forecast

Advertisements
Track Severe Weather on mobile